Terminal Aerodrome Forecast
Issued by NWS

Home | Current Version | Previous Version | Text Only | Print | Product List | Glossary On
Versions: 1 2 3 4 5 6 7 8 9 10 11 12 13 14
000
FTUS45 KGJT 192345
TAFEGE
TAF
KEGE 192345Z 2000/2024 21015KT P6SM -SHRA BKN050 OVC070
     FM200400 11008KT 4SM -RA BR SCT025 OVC035
     FM200800 15008KT P6SM VCSH BKN035
     FM200900 VRB03KT 2SM BR BKN008
     FM201530 VRB03KT 6SM BR BKN250
     FM201900 26008KT P6SM SCT250=

USA.gov is the U.S. government's official web portal to all federal, state and local government web resources and services.